Time;durP1;ratioP1;P1;durP2;ratioP2;P2;SDS_P1;SDS_P2;PMS_P1;PMS_P2;Temp;Humidity;BMP_temperature;BMP_pressure;BME280_temperature;BME280_humidity;BME280_pressure;Samples;Min_cycle;Max_cycle;Signal;HPM_P1;HPM_P2
2023/09/03 00:01:01;;;;;;;3.42;2.30;;;15.40;99.90;;;;;;5018002;28;20109;-78
2023/09/03 00:03:27;;;;;;;3.08;1.90;;;15.40;99.90;;;;;;5017669;28;20025;-78
2023/09/03 00:05:56;;;;;;;2.67;1.95;;;15.30;99.90;;;;;;5018882;28;20044;-77
2023/09/03 00:08:22;;;;;;;;;;;15.30;99.90;;;;;;5017574;28;20040;-78
2023/09/03 00:10:49;;;;;;;4.25;1.90;;;15.20;99.90;;;;;;5020657;28;19902;-78
2023/09/03 00:13:15;;;;;;;5.63;2.72;;;15.30;99.90;;;;;;5020891;28;20056;-78
2023/09/03 00:15:40;;;;;;;4.75;2.55;;;15.30;99.90;;;;;;5022241;28;20030;-77
2023/09/03 00:18:07;;;;;;;2.10;1.90;;;15.30;99.90;;;;;;5022014;28;20017;-78
2023/09/03 00:20:32;;;;;;;4.18;2.00;;;15.30;99.90;;;;;;5022795;28;20022;-78
2023/09/03 00:22:58;;;;;;;2.35;2.15;;;15.20;99.90;;;;;;5009723;28;20026;-79
2023/09/03 00:25:24;;;;;;;5.72;2.25;;;15.10;99.90;;;;;;5012173;28;20049;-78
2023/09/03 00:27:49;;;;;;;2.53;1.58;;;15.00;99.90;;;;;;5012325;28;20036;-78
2023/09/03 00:30:15;;;;;;;2.60;2.20;;;15.00;99.90;;;;;;5010850;28;20455;-78
2023/09/03 00:32:40;;;;;;;4.20;1.85;;;15.00;99.90;;;;;;5011321;28;20021;-78
2023/09/03 00:35:06;;;;;;;4.03;2.00;;;15.00;99.90;;;;;;5012458;28;20383;-78
2023/09/03 00:37:32;;;;;;;5.20;2.70;;;15.00;99.90;;;;;;5012050;28;20250;-79
2023/09/03 00:39:58;;;;;;;2.08;1.73;;;15.00;99.90;;;;;;5010784;28;20033;-78
2023/09/03 00:42:23;;;;;;;2.80;2.10;;;15.00;99.90;;;;;;5010793;28;20122;-78
2023/09/03 00:44:49;;;;;;;3.22;1.77;;;15.10;99.90;;;;;;5010589;28;20490;-78
2023/09/03 00:47:17;;;;;;;2.03;1.77;;;15.00;99.90;;;;;;5010700;28;20030;-78
2023/09/03 00:49:43;;;;;;;4.25;1.95;;;14.90;99.90;;;;;;5011214;28;20596;-78
2023/09/03 00:52:10;;;;;;;4.13;2.38;;;14.90;99.90;;;;;;5010255;28;20025;-78
2023/09/03 00:54:36;;;;;;;1.73;1.60;;;14.90;99.90;;;;;;5010334;28;20030;-78
2023/09/03 00:57:02;;;;;;;4.10;2.47;;;14.90;99.90;;;;;;5010325;28;20022;-78
2023/09/03 00:59:30;;;;;;;2.15;1.77;;;15.00;99.90;;;;;;5010887;28;20034;-79
2023/09/03 01:01:56;;;;;;;6.65;2.53;;;15.00;99.90;;;;;;5011631;28;20378;-78
2023/09/03 01:04:22;;;;;;;5.07;2.40;;;14.90;99.90;;;;;;5009697;28;20297;-78
2023/09/03 01:06:49;;;;;;;10.18;2.65;;;15.00;99.90;;;;;;5010003;28;20300;-78
2023/09/03 01:09:16;;;;;;;2.30;2.10;;;14.80;99.90;;;;;;5010084;28;20203;-78
2023/09/03 01:12:05;;;;;;;2.55;1.90;;;14.70;99.90;;;;;;5010215;28;20025;-78
2023/09/03 01:14:43;;;;;;;1.93;1.37;;;14.80;99.90;;;;;;5011912;28;20022;-77
2023/09/03 01:17:28;;;;;;;2.63;1.77;;;14.80;99.90;;;;;;5010003;28;20038;-78
2023/09/03 01:20:06;;;;;;;2.47;1.90;;;14.80;99.90;;;;;;5011320;28;20064;-78
2023/09/03 01:23:00;;;;;;;2.45;2.00;;;14.80;99.90;;;;;;5010182;28;20101;-78
2023/09/03 01:25:53;;;;;;;3.95;2.03;;;14.80;99.90;;;;;;5010872;28;20034;-78
2023/09/03 01:28:44;;;;;;;4.65;1.92;;;14.90;99.90;;;;;;5009973;28;20478;-78
2023/09/03 01:31:14;;;;;;;1.70;1.60;;;14.80;99.90;;;;;;5011333;28;20075;-78
2023/09/03 01:33:42;;;;;;;5.72;1.88;;;14.80;99.90;;;;;;5009814;28;20049;-78
2023/09/03 01:36:09;;;;;;;2.97;2.05;;;14.80;99.90;;;;;;5010387;28;20101;-78
2023/09/03 01:38:39;;;;;;;3.92;1.50;;;14.90;99.90;;;;;;5010583;28;20482;-78
2023/09/03 01:41:06;;;;;;;3.38;2.45;;;14.90;99.90;;;;;;5011911;28;20026;-79
2023/09/03 01:43:32;;;;;;;4.78;1.98;;;14.90;99.90;;;;;;5012951;28;20022;-78
2023/09/03 01:46:06;;;;;;;2.33;1.85;;;14.70;99.90;;;;;;5010109;28;20069;-78
2023/09/03 01:48:53;;;;;;;3.35;1.70;;;14.50;99.90;;;;;;5009817;28;20117;-78
2023/09/03 01:51:19;;;;;;;3.63;2.60;;;14.50;99.90;;;;;;5010841;28;20048;-78
2023/09/03 01:53:58;;;;;;;4.85;3.13;;;14.60;99.90;;;;;;5009645;28;20029;-78
2023/09/03 01:56:26;;;;;;;2.60;1.77;;;14.70;99.90;;;;;;5010746;28;20014;-78
2023/09/03 01:58:54;;;;;;;6.13;2.15;;;14.70;99.90;;;;;;5009153;28;20486;-78
2023/09/03 02:01:25;;;;;;;4.47;1.92;;;14.70;99.90;;;;;;5010899;28;20568;-79
2023/09/03 02:03:51;;;;;;;3.63;1.80;;;14.50;99.90;;;;;;5008790;28;20092;-78
2023/09/03 02:06:16;;;;;;;1.90;1.80;;;14.50;99.90;;;;;;5009304;28;20042;-78
2023/09/03 02:08:42;;;;;;;2.55;2.33;;;14.50;99.90;;;;;;5009832;28;20083;-78
2023/09/03 02:11:08;;;;;;;2.25;1.73;;;14.50;99.90;;;;;;5009343;28;20076;-78
2023/09/03 02:13:33;;;;;;;4.75;2.10;;;14.40;99.90;;;;;;5009125;28;20437;-78
2023/09/03 02:15:59;;;;;;;2.67;2.28;;;14.40;99.90;;;;;;5010458;28;20022;-78
2023/09/03 02:18:25;;;;;;;1.90;1.80;;;14.30;99.90;;;;;;5008666;28;20022;-78
2023/09/03 02:20:50;;;;;;;2.97;2.40;;;14.20;99.90;;;;;;5008875;28;20037;-78
2023/09/03 02:23:16;;;;;;;4.15;2.08;;;14.20;99.90;;;;;;5010385;28;20474;-78
2023/09/03 02:25:41;;;;;;;3.38;2.78;;;14.20;99.90;;;;;;5010111;28;20048;-77
2023/09/03 02:28:07;;;;;;;2.53;1.80;;;14.20;99.90;;;;;;5010171;28;20030;-78
2023/09/03 02:30:33;;;;;;;2.67;1.85;;;14.10;99.90;;;;;;5008968;28;20429;-77
2023/09/03 02:32:59;;;;;;;1.85;1.65;;;14.10;99.90;;;;;;5008506;28;20030;-78
2023/09/03 02:35:24;;;;;;;2.53;2.00;;;14.10;99.90;;;;;;5010563;28;20367;-77
2023/09/03 02:37:50;;;;;;;4.65;2.35;;;14.20;99.90;;;;;;5010116;28;20533;-77
2023/09/03 02:40:16;;;;;;;5.10;2.20;;;14.10;99.90;;;;;;5010042;28;20056;-78
2023/09/03 02:42:41;;;;;;;7.18;2.42;;;14.00;99.90;;;;;;5008688;28;20014;-78
2023/09/03 02:45:07;;;;;;;3.33;2.50;;;13.90;99.90;;;;;;5010336;28;20235;-77
2023/09/03 02:47:33;;;;;;;3.15;2.13;;;13.90;99.90;;;;;;5008731;28;20029;-77
2023/09/03 02:49:58;;;;;;;2.30;2.10;;;13.90;99.90;;;;;;5009478;28;20038;-78
2023/09/03 02:52:24;;;;;;;2.28;2.03;;;14.00;99.90;;;;;;5009809;28;20022;-77
2023/09/03 02:54:50;;;;;;;4.03;2.38;;;13.90;99.90;;;;;;5008811;28;20044;-77
2023/09/03 02:57:15;;;;;;;2.75;1.83;;;14.00;99.90;;;;;;5009984;28;20018;-78
2023/09/03 02:59:44;;;;;;;5.40;2.30;;;14.00;99.90;;;;;;5008549;28;20506;-78
2023/09/03 03:02:10;;;;;;;1.80;1.67;;;14.00;99.90;;;;;;5010159;28;20026;-78
2023/09/03 03:04:35;;;;;;;2.42;1.92;;;13.90;99.90;;;;;;5009662;28;20038;-78
2023/09/03 03:07:01;;;;;;;2.20;1.83;;;13.80;99.90;;;;;;5008461;28;20425;-77
2023/09/03 03:09:27;;;;;;;3.08;2.08;;;13.80;99.90;;;;;;5008380;28;20022;-78
2023/09/03 03:11:52;;;;;;;3.35;2.10;;;13.70;99.90;;;;;;5009394;28;20029;-78
2023/09/03 03:14:18;;;;;;;2.50;1.80;;;13.70;99.90;;;;;;5009459;28;20040;-78
2023/09/03 03:16:44;;;;;;;8.93;2.88;;;13.70;99.90;;;;;;5008289;28;20026;-78
2023/09/03 03:19:09;;;;;;;4.38;2.55;;;13.70;99.90;;;;;;5009477;28;20052;-78
2023/09/03 03:21:36;;;;;;;2.42;1.88;;;13.60;99.90;;;;;;5008429;28;20057;-78
2023/09/03 03:24:03;;;;;;;2.30;2.08;;;13.60;99.90;;;;;;5009938;28;20026;-78
2023/09/03 03:26:31;;;;;;;3.33;2.20;;;13.60;99.90;;;;;;5008446;28;20122;-78
2023/09/03 03:28:56;;;;;;;2.58;2.10;;;13.60;99.90;;;;;;5009821;28;20532;-77
2023/09/03 03:31:23;;;;;;;1.83;1.70;;;13.70;99.90;;;;;;5008153;28;20113;-78
2023/09/03 03:33:49;;;;;;;2.42;2.17;;;13.60;99.90;;;;;;5009140;28;20029;-77
2023/09/03 03:36:16;;;;;;;5.88;3.22;;;13.70;99.90;;;;;;5009695;28;20391;-78
2023/09/03 03:38:42;;;;;;;5.90;3.00;;;13.60;99.90;;;;;;5009441;28;20050;-78
2023/09/03 03:41:13;;;;;;;3.65;2.75;;;13.70;99.90;;;;;;5009330;28;20026;-78
2023/09/03 03:43:41;;;;;;;2.72;2.15;;;13.80;99.90;;;;;;5008280;28;20029;-78
2023/09/03 03:46:07;;;;;;;4.85;2.30;;;13.70;99.90;;;;;;5010361;28;20100;-77
2023/09/03 03:48:34;;;;;;;4.28;2.40;;;13.60;99.90;;;;;;5011315;28;20056;-78
2023/09/03 03:50:59;;;;;;;2.65;1.77;;;13.60;99.90;;;;;;5012160;28;20052;-78
2023/09/03 03:53:26;;;;;;;2.92;2.13;;;13.70;99.90;;;;;;5013447;28;20467;-78
2023/09/03 03:56:05;;;;;;;1.90;1.80;;;13.50;99.90;;;;;;5012049;28;20143;-80
2023/09/03 03:58:34;;;;;;;3.70;2.47;;;13.60;99.90;;;;;;5012015;28;20026;-78
2023/09/03 04:01:00;;;;;;;3.90;2.70;;;13.50;99.90;;;;;;5013182;28;20034;-78
2023/09/03 04:03:29;;;;;;;3.20;2.17;;;13.60;99.90;;;;;;5013006;28;20022;-77
2023/09/03 04:05:59;;;;;;;3.95;2.00;;;13.70;99.90;;;;;;5013200;28;20565;-78
2023/09/03 04:08:33;;;;;;;4.72;2.33;;;13.60;99.90;;;;;;5013492;28;20026;-78
2023/09/03 04:11:04;;;;;;;2.67;2.47;;;13.60;99.90;;;;;;5013017;28;20029;-77
2023/09/03 04:13:30;;;;;;;2.42;2.22;;;13.40;99.90;;;;;;5011694;28;20049;-76
2023/09/03 04:15:57;;;;;;;5.05;2.58;;;13.40;99.90;;;;;;5013050;28;20026;-77
2023/09/03 04:18:24;;;;;;;6.15;2.88;;;13.40;99.90;;;;;;5012849;28;20030;-78
2023/09/03 04:20:53;;;;;;;5.72;3.53;;;13.40;99.90;;;;;;5012910;28;20660;-77
2023/09/03 04:23:19;;;;;;;;;;;13.40;99.90;;;;;;5013508;28;20052;-78
2023/09/03 04:25:45;;;;;;;3.67;2.67;;;13.50;99.90;;;;;;5011737;28;20396;-77
2023/09/03 04:28:10;;;;;;;6.80;2.90;;;13.40;99.90;;;;;;5012646;28;20101;-78
2023/09/03 04:30:38;;;;;;;8.43;2.70;;;13.40;99.90;;;;;;5012647;28;20073;-78
2023/09/03 04:33:07;;;;;;;3.95;3.35;;;13.30;99.90;;;;;;5010915;28;20041;-78
2023/09/03 04:35:37;;;;;;;6.40;3.65;;;13.30;99.90;;;;;;5011347;28;20030;-78
2023/09/03 04:38:03;;;;;;;3.85;2.60;;;13.30;99.90;;;;;;5012842;28;20133;-78
2023/09/03 04:40:35;;;;;;;4.38;2.40;;;13.30;99.90;;;;;;5011430;28;20038;-78
2023/09/03 04:43:02;;;;;;;4.22;2.90;;;13.20;99.90;;;;;;5011280;28;20425;-78
2023/09/03 04:45:28;;;;;;;9.05;3.95;;;13.30;99.90;;;;;;5012275;28;20037;-77
2023/09/03 04:47:55;;;;;;;3.05;2.75;;;13.30;99.90;;;;;;5010753;28;20026;-77
2023/09/03 04:50:21;;;;;;;3.97;3.58;;;13.30;99.90;;;;;;5011143;28;20084;-78
2023/09/03 04:52:48;;;;;;;6.13;3.58;;;13.30;99.90;;;;;;5012609;28;20415;-78
2023/09/03 04:55:14;;;;;;;3.33;2.63;;;13.20;99.90;;;;;;5012368;28;20069;-78
2023/09/03 04:57:40;;;;;;;3.65;3.08;;;13.20;99.90;;;;;;5010888;28;20022;-78
2023/09/03 05:00:07;;;;;;;9.25;4.10;;;13.20;99.90;;;;;;5010602;28;20054;-78
2023/09/03 05:02:33;;;;;;;4.75;3.30;;;13.20;99.90;;;;;;5010583;28;20022;-78
2023/09/03 05:04:59;;;;;;;5.47;3.35;;;13.30;99.90;;;;;;5011665;28;20038;-77
2023/09/03 05:07:25;;;;;;;6.60;3.53;;;13.30;99.90;;;;;;5012225;28;20032;-79
2023/09/03 05:09:55;;;;;;;4.25;2.80;;;13.40;99.90;;;;;;5012201;28;20029;-78
2023/09/03 05:12:21;;;;;;;5.30;3.22;;;13.30;99.90;;;;;;5010925;28;20478;-78
2023/09/03 05:14:47;;;;;;;3.05;2.63;;;13.20;99.90;;;;;;5012327;28;20439;-78
2023/09/03 05:17:12;;;;;;;5.07;3.05;;;13.30;99.90;;;;;;5012922;28;20092;-78
2023/09/03 05:19:39;;;;;;;3.92;3.33;;;13.20;99.90;;;;;;5012149;28;20030;-78
2023/09/03 05:22:04;;;;;;;6.43;3.72;;;13.30;99.90;;;;;;5016602;28;20032;-78
2023/09/03 05:24:30;;;;;;;5.68;3.42;;;13.40;99.90;;;;;;5021918;28;20041;-78
2023/09/03 05:26:55;;;;;;;4.47;2.80;;;13.40;99.90;;;;;;5020872;28;20075;-77
2023/09/03 05:29:21;;;;;;;4.68;3.53;;;13.40;99.90;;;;;;5022521;28;20604;-78
2023/09/03 05:31:47;;;;;;;4.68;3.33;;;13.50;99.90;;;;;;5023160;28;20478;-78
2023/09/03 05:34:12;;;;;;;3.30;2.95;;;13.60;99.90;;;;;;5021592;28;20117;-78
2023/09/03 05:36:39;;;;;;;6.03;3.17;;;13.70;99.90;;;;;;5022529;28;20018;-78
2023/09/03 05:39:05;;;;;;;9.38;4.38;;;13.80;99.90;;;;;;5020679;28;20398;-77
2023/09/03 05:41:31;;;;;;;3.28;2.70;;;13.80;99.90;;;;;;5025723;28;20431;-78
2023/09/03 05:43:57;;;;;;;6.95;3.22;;;13.80;99.90;;;;;;5030296;28;20057;-70
2023/09/03 05:46:23;;;;;;;11.73;3.78;;;13.90;99.90;;;;;;5030233;28;20631;-74
2023/09/03 05:48:52;;;;;;;6.10;3.13;;;14.00;99.90;;;;;;5030186;28;20018;-68
2023/09/03 05:51:18;;;;;;;4.53;2.88;;;14.10;99.90;;;;;;5030981;28;20490;-66
2023/09/03 05:53:43;;;;;;;3.95;2.92;;;14.10;99.90;;;;;;5030616;28;20317;-67
2023/09/03 05:56:11;;;;;;;5.53;2.80;;;14.20;99.90;;;;;;5030489;28;20451;-66
2023/09/03 05:58:38;;;;;;;2.90;2.70;;;14.30;99.90;;;;;;5030017;28;20393;-67
2023/09/03 06:01:08;;;;;;;6.05;3.08;;;14.50;99.90;;;;;;5030491;28;20091;-67
2023/09/03 06:03:34;;;;;;;6.20;2.70;;;14.60;99.90;;;;;;5030171;28;20021;-66
2023/09/03 06:06:08;;;;;;;3.13;2.40;;;14.70;99.90;;;;;;5030205;28;20363;-67
2023/09/03 06:08:34;;;;;;;3.15;2.63;;;14.80;99.90;;;;;;5030300;28;20029;-69
2023/09/03 06:11:00;;;;;;;5.47;3.03;;;14.90;99.90;;;;;;5030516;28;20025;-67
2023/09/03 06:13:30;;;;;;;3.10;2.55;;;15.00;99.90;;;;;;5028891;28;20263;-67
2023/09/03 06:15:56;;;;;;;4.63;2.30;;;15.10;99.90;;;;;;5027773;28;20022;-67
2023/09/03 06:18:22;;;;;;;4.80;2.92;;;15.20;99.90;;;;;;5028975;28;20017;-67
2023/09/03 06:20:48;;;;;;;3.22;2.75;;;15.30;99.90;;;;;;5029199;28;20116;-66
2023/09/03 06:23:17;;;;;;;3.55;2.60;;;15.40;99.90;;;;;;5029031;28;20033;-68
2023/09/03 06:25:43;;;;;;;5.45;3.55;;;15.60;99.90;;;;;;5029677;28;20065;-68
2023/09/03 06:28:09;;;;;;;4.80;2.58;;;15.70;99.90;;;;;;5031557;28;20061;-67
2023/09/03 06:30:35;;;;;;;3.20;2.72;;;15.80;99.90;;;;;;5032601;28;20021;-69
2023/09/03 06:33:00;;;;;;;4.95;2.60;;;15.90;99.90;;;;;;5029099;28;20013;-67
2023/09/03 06:35:26;;;;;;;2.80;2.30;;;16.10;99.90;;;;;;5028134;28;20060;-66
2023/09/03 06:37:52;;;;;;;2.85;2.25;;;16.20;99.90;;;;;;5027759;28;20053;-67
2023/09/03 06:40:17;;;;;;;5.75;2.75;;;16.20;99.90;;;;;;5027621;28;20105;-68
2023/09/03 06:42:43;;;;;;;6.70;3.63;;;16.30;99.90;;;;;;5027827;28;20105;-66
2023/09/03 06:45:10;;;;;;;5.72;3.45;;;16.40;99.90;;;;;;5029481;28;20037;-67
2023/09/03 06:47:38;;;;;;;8.48;3.58;;;16.60;99.90;;;;;;5029375;28;20040;-67
2023/09/03 06:50:08;;;;;;;3.08;2.65;;;16.60;99.90;;;;;;5028028;28;20061;-67
2023/09/03 06:52:36;;;;;;;3.37;2.87;;;16.70;99.90;;;;;;5028656;28;20076;-67
2023/09/03 06:55:02;;;;;;;13.50;2.33;;;16.80;99.90;;;;;;5028751;28;20034;-66
2023/09/03 06:57:28;;;;;;;4.55;2.92;;;16.80;99.90;;;;;;5028646;28;20022;-67
2023/09/03 06:59:54;;;;;;;7.25;3.05;;;17.00;99.90;;;;;;5027364;28;20021;-67
2023/09/03 07:02:20;;;;;;;5.07;2.72;;;17.10;99.90;;;;;;5028722;28;20068;-67
2023/09/03 07:04:46;;;;;;;6.18;3.78;;;17.10;99.90;;;;;;5029124;28;20087;-67
2023/09/03 07:07:11;;;;;;;2.50;2.15;;;17.10;99.90;;;;;;5029625;28;20033;-68
2023/09/03 07:09:37;;;;;;;4.97;3.13;;;17.10;99.90;;;;;;5027783;28;20398;-67
2023/09/03 07:12:03;;;;;;;4.80;2.85;;;17.10;99.90;;;;;;5029250;28;20462;-66
2023/09/03 07:14:33;;;;;;;5.28;3.03;;;17.10;99.90;;;;;;5029373;28;20037;-67
2023/09/03 07:17:03;;;;;;;6.53;4.07;;;17.20;99.90;;;;;;5029989;28;20492;-66
2023/09/03 07:19:29;;;;;;;6.15;3.25;;;17.40;99.90;;;;;;5028104;28;20037;-66
2023/09/03 07:21:54;;;;;;;6.07;3.42;;;17.40;99.90;;;;;;5027485;28;20036;-66
2023/09/03 07:24:20;;;;;;;5.57;3.40;;;17.40;99.90;;;;;;5029293;28;20089;-66
2023/09/03 07:26:46;;;;;;;4.25;3.15;;;17.40;99.90;;;;;;5028848;28;20037;-69
2023/09/03 07:29:13;;;;;;;8.43;3.20;;;17.50;99.90;;;;;;5027518;28;20033;-67
2023/09/03 07:31:43;;;;;;;4.38;3.13;;;17.50;99.90;;;;;;5028180;28;20108;-67
2023/09/03 07:34:12;;;;;;;4.28;2.75;;;17.60;99.90;;;;;;5027577;28;20049;-67
2023/09/03 07:36:38;;;;;;;4.53;3.20;;;17.70;99.90;;;;;;5027775;28;20108;-68
2023/09/03 07:39:05;;;;;;;4.63;3.80;;;17.90;99.90;;;;;;5027699;28;20128;-66
2023/09/03 07:41:31;;;;;;;8.23;3.35;;;18.00;99.90;;;;;;5027850;28;20508;-67
2023/09/03 07:43:57;;;;;;;8.52;3.08;;;18.10;99.90;;;;;;5029001;28;20030;-67
2023/09/03 07:46:23;;;;;;;5.25;2.83;;;18.20;99.90;;;;;;5028820;28;20037;-67
2023/09/03 07:48:49;;;;;;;2.50;2.30;;;18.30;99.90;;;;;;5028282;28;20041;-67
2023/09/03 07:51:16;;;;;;;5.22;3.10;;;18.40;99.90;;;;;;5029055;28;20359;-70
2023/09/03 07:53:42;;;;;;;6.65;3.03;;;18.60;99.90;;;;;;5028717;28;20451;-70
2023/09/03 07:56:07;;;;;;;4.30;2.85;;;18.70;99.90;;;;;;5028488;28;20037;-76
2023/09/03 07:58:33;;;;;;;4.40;3.08;;;19.00;99.90;;;;;;5026418;28;20117;-78
2023/09/03 08:01:00;;;;;;;7.90;3.20;;;19.20;99.90;;;;;;5025775;28;20033;-77
2023/09/03 08:03:34;;;;;;;5.82;3.58;;;19.30;99.90;;;;;;5027674;28;20176;-77
2023/09/03 08:06:01;;;;;;;5.80;3.33;;;19.40;99.90;;;;;;5028498;28;20072;-77
2023/09/03 08:08:28;;;;;;;3.58;2.50;;;19.50;99.90;;;;;;5026988;28;20059;-77
2023/09/03 08:10:55;;;;;;;3.42;2.60;;;19.70;99.90;;;;;;5027176;28;20094;-77
2023/09/03 08:13:20;;;;;;;3.05;2.75;;;20.10;99.90;;;;;;5028436;28;20037;-78
2023/09/03 08:15:46;;;;;;;4.38;2.83;;;20.30;99.90;;;;;;5026909;28;20033;-78
2023/09/03 08:18:11;;;;;;;3.72;2.72;;;20.50;99.90;;;;;;5025995;28;20033;-78
2023/09/03 08:20:37;;;;;;;4.25;2.38;;;20.90;99.90;;;;;;5026490;28;20045;-78
2023/09/03 08:23:03;;;;;;;3.95;2.47;;;21.30;99.90;;;;;;5025199;28;20032;-77
2023/09/03 08:25:30;;;;;;;3.08;2.30;;;21.70;99.90;;;;;;5026281;28;20056;-77
2023/09/03 08:27:56;;;;;;;3.42;2.50;;;22.30;99.90;;;;;;5025069;28;20389;-78
2023/09/03 08:30:22;;;;;;;4.68;2.33;;;23.00;99.90;;;;;;5024896;28;20121;-78
2023/09/03 08:32:47;;;;;;;4.95;2.88;;;23.90;99.90;;;;;;5029926;28;20148;-78
2023/09/03 08:35:13;;;;;;;3.38;2.30;;;24.30;99.90;;;;;;5029987;28;20083;-77
2023/09/03 08:37:38;;;;;;;4.03;2.60;;;24.80;99.90;;;;;;5025526;28;20045;-78
2023/09/03 08:40:05;;;;;;;3.50;2.13;;;25.10;99.90;;;;;;5030058;28;20080;-78
2023/09/03 08:42:32;;;;;;;3.50;2.85;;;25.10;99.90;;;;;;5029666;28;20257;-78
2023/09/03 08:45:04;;;;;;;5.35;2.33;;;24.90;99.90;;;;;;5033526;28;20048;-78
2023/09/03 08:47:31;;;;;;;7.43;2.38;;;25.10;99.90;;;;;;5040976;28;20032;-78
2023/09/03 08:49:59;;;;;;;3.97;2.25;;;25.50;99.90;;;;;;5040920;28;20272;-78
2023/09/03 08:52:26;;;;;;;3.38;2.58;;;25.80;99.90;;;;;;5038023;28;20014;-79
2023/09/03 08:54:53;;;;;;;3.78;1.98;;;26.00;99.90;;;;;;5021691;28;20109;-78
2023/09/03 08:57:19;;;;;;;2.50;2.03;;;26.30;99.90;;;;;;5022707;28;20300;-78
2023/09/03 08:59:45;;;;;;;2.97;1.85;;;26.80;99.90;;;;;;5022608;28;20187;-77
2023/09/03 09:02:14;;;;;;;2.47;1.90;;;26.90;99.90;;;;;;5022878;28;20343;-78
2023/09/03 09:04:40;;;;;;;4.22;2.33;;;27.00;99.90;;;;;;5021953;28;20344;-78
2023/09/03 09:07:06;;;;;;;2.72;2.03;;;27.00;99.40;;;;;;5018852;28;20026;-78
2023/09/03 09:09:34;;;;;;;3.35;1.83;;;26.90;97.80;;;;;;5029058;28;20067;-78
2023/09/03 09:12:12;;;;;;;2.35;1.90;;;26.80;97.20;;;;;;5029323;28;20076;-75
2023/09/03 09:15:00;;;;;;;2.73;1.57;;;26.80;97.30;;;;;;5032843;28;20067;-75
2023/09/03 09:17:28;;;;;;;2.10;2.00;;;27.10;96.20;;;;;;5030051;28;20272;-76
2023/09/03 09:19:58;;;;;;;2.65;2.08;;;27.40;96.10;;;;;;5032129;28;20017;-75
2023/09/03 09:22:25;;;;;;;2.28;2.08;;;27.30;95.70;;;;;;5025149;28;20075;-75
2023/09/03 09:24:51;;;;;;;2.42;1.67;;;27.60;94.70;;;;;;5022186;28;20053;-76
2023/09/03 09:27:22;;;;;;;2.47;1.70;;;27.60;94.70;;;;;;5020943;28;20026;-75
2023/09/03 09:29:48;;;;;;;2.72;1.92;;;27.60;94.80;;;;;;5026504;28;20013;-78
2023/09/03 09:32:24;;;;;;;2.85;2.10;;;27.70;94.40;;;;;;5032019;28;20324;-76
2023/09/03 09:34:50;;;;;;;1.88;1.67;;;27.50;94.60;;;;;;5032358;28;20108;-77
2023/09/03 09:37:16;;;;;;;3.90;1.98;;;27.30;94.70;;;;;;5028530;28;20037;-76
2023/09/03 09:39:43;;;;;;;2.13;1.60;;;26.90;94.80;;;;;;5027291;28;20141;-76
2023/09/03 09:42:12;;;;;;;2.30;1.88;;;26.80;95.40;;;;;;5038476;28;20081;-76
2023/09/03 09:44:59;;;;;;;4.18;1.83;;;26.60;96.00;;;;;;5029556;28;20025;-76
2023/09/03 09:47:26;;;;;;;2.10;1.90;;;26.80;95.40;;;;;;5028941;28;20067;-76
2023/09/03 09:49:52;;;;;;;3.58;2.17;;;26.60;95.50;;;;;;5029643;28;20018;-76
2023/09/03 09:52:18;;;;;;;2.05;1.83;;;26.30;96.00;;;;;;5031625;28;20202;-76
2023/09/03 09:54:46;;;;;;;2.15;1.95;;;25.80;96.50;;;;;;5030443;28;20301;-76
2023/09/03 09:57:14;;;;;;;2.53;1.90;;;25.50;96.90;;;;;;5031418;28;20065;-77
2023/09/03 09:59:41;;;;;;;3.78;2.00;;;25.50;97.90;;;;;;5028338;28;20018;-76
2023/09/03 10:02:14;;;;;;;3.30;1.80;;;25.50;98.30;;;;;;5033068;28;20037;-76
2023/09/03 10:04:45;;;;;;;5.85;1.90;;;25.90;97.70;;;;;;5029897;28;20045;-76
2023/09/03 10:07:12;;;;;;;2.55;2.28;;;26.00;96.20;;;;;;5038214;28;20067;-76
2023/09/03 10:09:38;;;;;;;4.07;1.83;;;26.20;96.70;;;;;;5028448;28;20287;-76
2023/09/03 10:12:04;;;;;;;2.70;1.85;;;26.60;95.60;;;;;;5031846;28;20033;-76
2023/09/03 10:14:30;;;;;;;3.20;2.15;;;26.70;95.10;;;;;;5032756;28;20025;-77
2023/09/03 10:17:02;;;;;;;2.17;1.85;;;26.90;94.40;;;;;;5019691;28;20021;-79
2023/09/03 10:19:36;;;;;;;2.25;1.67;;;26.50;94.60;;;;;;5020097;28;20083;-79
2023/09/03 10:22:05;;;;;;;4.20;2.47;;;25.80;95.50;;;;;;5040658;28;20025;-79
2023/09/03 10:24:33;;;;;;;2.45;2.05;;;25.50;96.40;;;;;;5030807;28;20028;-79
2023/09/03 10:27:03;;;;;;;2.95;1.85;;;25.70;95.60;;;;;;5039476;28;20052;-75
2023/09/03 10:29:32;;;;;;;2.28;1.77;;;26.40;94.30;;;;;;5039024;28;20108;-77
2023/09/03 10:32:00;;;;;;;2.65;1.50;;;26.90;94.20;;;;;;5035397;28;20018;-77
2023/09/03 10:34:25;;;;;;;1.95;1.50;;;27.70;93.10;;;;;;5028091;28;20032;-76
2023/09/03 10:37:09;;;;;;;3.10;2.25;;;27.10;93.10;;;;;;5038654;28;20025;-76
2023/09/03 10:39:37;;;;;;;4.47;1.65;;;27.50;92.70;;;;;;5040528;28;20041;-76
2023/09/03 10:42:15;;;;;;;1.98;1.52;;;27.70;92.20;;;;;;5037469;28;20056;-79
2023/09/03 10:44:42;;;;;;;2.40;1.70;;;28.00;91.90;;;;;;5028850;28;20036;-77
2023/09/03 10:47:08;;;;;;;1.38;1.27;;;28.20;91.30;;;;;;5021070;28;20233;-77
2023/09/03 10:49:41;;;;;;;2.15;1.80;;;28.50;90.80;;;;;;5028233;28;20030;-76
2023/09/03 10:52:25;;;;;;;2.13;1.33;;;29.20;89.90;;;;;;5040619;28;20025;-76
2023/09/03 10:55:13;;;;;;;1.50;1.40;;;29.30;87.70;;;;;;5039221;28;20037;-76
2023/09/03 10:57:39;;;;;;;1.88;1.60;;;29.20;85.40;;;;;;5040290;28;20291;-76
2023/09/03 11:00:05;;;;;;;1.75;1.50;;;28.90;86.00;;;;;;5038585;28;20048;-77
2023/09/03 11:02:32;;;;;;;3.88;1.60;;;29.10;85.50;;;;;;5038927;28;20013;-76
2023/09/03 11:05:14;;;;;;;4.53;2.22;;;29.40;85.90;;;;;;5039284;28;20046;-76
2023/09/03 11:07:44;;;;;;;2.10;1.08;;;29.90;85.00;;;;;;5039778;28;20028;-74
2023/09/03 11:10:21;;;;;;;1.70;1.60;;;30.60;84.80;;;;;;5034254;28;20021;-74
2023/09/03 11:12:50;;;;;;;1.20;1.20;;;30.90;82.00;;;;;;5040045;28;20025;-69
2023/09/03 11:15:16;;;;;;;3.60;1.50;;;31.20;81.60;;;;;;5038435;28;20080;-67
2023/09/03 11:17:55;;;;;;;1.60;1.50;;;31.40;79.70;;;;;;5037598;28;20037;-72
2023/09/03 11:20:34;;;;;;;1.90;1.65;;;31.20;78.50;;;;;;5039231;28;20320;-69
2023/09/03 11:23:00;;;;;;;1.38;1.10;;;30.40;79.00;;;;;;5039173;28;20100;-73
2023/09/03 11:25:35;;;;;;;4.72;1.40;;;30.60;80.10;;;;;;5039411;28;20080;-68
2023/09/03 11:28:01;;;;;;;2.58;1.50;;;30.60;79.20;;;;;;5039758;28;20365;-69
2023/09/03 11:30:28;;;;;;;1.80;1.70;;;30.30;77.50;;;;;;5038209;28;20037;-72
2023/09/03 11:32:53;;;;;;;5.57;1.55;;;29.50;79.80;;;;;;5039242;28;20029;-70
2023/09/03 11:35:19;;;;;;;1.73;1.45;;;29.90;80.10;;;;;;5034672;28;20382;-68
2023/09/03 11:37:45;;;;;;;2.50;1.58;;;30.60;80.70;;;;;;5037693;28;20049;-69
2023/09/03 11:40:12;;;;;;;2.53;1.60;;;30.90;78.40;;;;;;5039624;28;20033;-70
2023/09/03 11:42:41;;;;;;;2.35;1.52;;;31.30;77.00;;;;;;5038314;28;20025;-72
2023/09/03 11:45:08;;;;;;;;;;;31.30;77.30;;;;;;5038458;28;20029;-68
2023/09/03 11:47:46;;;;;;;3.00;2.28;;;31.20;77.60;;;;;;5039157;28;19932;-75
2023/09/03 11:50:15;;;;;;;1.50;1.40;;;30.20;77.00;;;;;;5038297;28;20060;-76
2023/09/03 11:52:47;;;;;;;1.13;1.10;;;30.00;77.70;;;;;;5038700;28;20017;-76
2023/09/03 11:55:13;;;;;;;1.88;1.38;;;30.20;78.70;;;;;;5038152;28;20321;-76
2023/09/03 11:57:42;;;;;;;2.08;1.58;;;29.90;79.60;;;;;;5039790;28;20086;-76
2023/09/03 12:00:08;;;;;;;;;;;29.40;78.60;;;;;;5040259;28;20251;-78
2023/09/03 12:02:34;;;;;;;1.73;1.30;;;29.20;82.10;;;;;;5037584;28;19905;-78
2023/09/03 12:05:01;;;;;;;4.05;1.80;;;29.20;79.00;;;;;;5035646;28;20168;-76
2023/09/03 12:07:27;;;;;;;1.48;1.38;;;29.90;78.70;;;;;;5039249;28;20014;-74
2023/09/03 12:09:53;;;;;;;2.20;1.50;;;30.50;77.90;;;;;;5043325;28;20070;-76
2023/09/03 12:12:19;;;;;;;0.98;0.98;;;29.80;77.80;;;;;;5042354;28;20026;-75
2023/09/03 12:14:44;;;;;;;1.67;1.58;;;29.20;77.90;;;;;;5043021;28;20127;-76
2023/09/03 12:17:10;;;;;;;1.92;1.38;;;29.80;78.90;;;;;;5042174;28;20026;-77
2023/09/03 12:19:42;;;;;;;1.33;1.23;;;29.60;77.20;;;;;;5040085;28;20049;-74
2023/09/03 12:22:08;;;;;;;1.25;1.15;;;29.60;79.10;;;;;;5034869;28;20060;-79
2023/09/03 12:24:34;;;;;;;1.67;1.27;;;29.70;77.40;;;;;;5040747;28;20018;-76
2023/09/03 12:27:07;;;;;;;1.50;1.10;;;30.40;77.20;;;;;;5042749;28;20036;-79
2023/09/03 12:29:35;;;;;;;1.15;1.10;;;30.10;77.00;;;;;;5040679;28;20405;-77
2023/09/03 12:32:01;;;;;;;1.52;1.42;;;30.10;79.30;;;;;;5043035;28;20049;-77
2023/09/03 12:34:35;;;;;;;1.25;1.10;;;30.00;79.70;;;;;;5038771;28;20040;-78
2023/09/03 12:37:01;;;;;;;1.92;1.70;;;29.90;76.70;;;;;;5042577;28;20040;-77
2023/09/03 12:39:29;;;;;;;2.45;1.48;;;29.50;78.30;;;;;;5038967;28;20277;-77
2023/09/03 12:41:55;;;;;;;1.58;1.45;;;30.20;76.40;;;;;;5041126;28;20032;-77
2023/09/03 12:44:21;;;;;;;3.13;1.35;;;30.20;77.90;;;;;;5035583;28;20030;-76
2023/09/03 12:46:46;;;;;;;1.60;1.23;;;30.50;77.00;;;;;;5039903;28;20025;-77
2023/09/03 12:49:12;;;;;;;2.05;1.58;;;29.40;78.10;;;;;;5030922;28;20037;-78
2023/09/03 12:51:41;;;;;;;1.45;1.17;;;29.40;78.90;;;;;;5033936;28;20132;-78